createdAt,value
2023-03-16T00:02:19.252Z,95.75
2023-03-16T00:04:47.515Z,95.78
2023-03-16T00:07:17.640Z,95.51
2023-03-16T00:09:46.000Z,95.09
2023-03-16T00:12:18.024Z,94.62
2023-03-16T00:14:47.547Z,94.00
2023-03-16T00:17:20.279Z,93.66
2023-03-16T00:19:51.304Z,93.32
2023-03-16T00:22:21.808Z,93.42
2023-03-16T00:24:50.441Z,93.88
2023-03-16T00:27:18.541Z,94.27
2023-03-16T00:29:48.182Z,94.82
2023-03-16T00:32:17.988Z,95.17
2023-03-16T00:34:47.010Z,95.34
2023-03-16T00:37:17.333Z,96.44
2023-03-16T00:39:47.895Z,97.05
2023-03-16T00:42:17.877Z,98.26
2023-03-16T00:44:46.047Z,98.94
2023-03-16T00:47:15.522Z,98.97
2023-03-16T00:49:45.691Z,100.00
2023-03-16T00:52:15.136Z,100.00
2023-03-16T00:54:46.621Z,100.00
2023-03-16T00:57:19.046Z,100.00
2023-03-16T00:59:48.605Z,100.00
2023-03-16T01:02:19.428Z,100.00
2023-03-16T01:04:47.706Z,100.00
2023-03-16T01:07:16.064Z,100.00
2023-03-16T01:09:44.870Z,100.00
2023-03-16T01:12:16.044Z,100.00
2023-03-16T01:14:46.013Z,100.00
2023-03-16T01:17:15.312Z,100.00
2023-03-16T01:19:44.261Z,100.00
2023-03-16T01:22:13.147Z,100.00
2023-03-16T01:24:42.676Z,100.00
2023-03-16T01:27:11.028Z,100.00
2023-03-16T01:29:43.664Z,100.00
2023-03-16T01:32:12.201Z,100.00
2023-03-16T01:34:40.513Z,100.00
2023-03-16T01:37:09.253Z,100.00
2023-03-16T01:39:37.589Z,100.00
2023-03-16T01:42:06.030Z,100.00
2023-03-16T01:44:54.624Z,100.00
2023-03-16T01:47:23.602Z,100.00
2023-03-16T01:49:55.091Z,100.00
2023-03-16T01:52:26.279Z,100.00
2023-03-16T01:54:58.014Z,100.00
2023-03-16T01:57:30.548Z,100.00
2023-03-16T02:00:08.552Z,100.00
2023-03-16T02:02:37.095Z,100.00
2023-03-16T02:05:13.603Z,100.00
2023-03-16T02:07:45.091Z,100.00
2023-03-16T02:10:15.628Z,100.00
2023-03-16T02:12:44.350Z,100.00
2023-03-16T02:15:15.868Z,100.00
2023-03-16T02:17:45.949Z,100.00
2023-03-16T02:20:26.842Z,100.00
2023-03-16T02:22:56.467Z,100.00
2023-03-16T02:25:28.255Z,100.00
2023-03-16T02:28:04.423Z,100.00
2023-03-16T02:30:34.148Z,100.00
2023-03-16T02:33:02.726Z,100.00
2023-03-16T02:35:31.364Z,100.00
2023-03-16T02:37:59.468Z,100.00
2023-03-16T02:40:30.549Z,100.00
2023-03-16T02:43:04.099Z,100.00
2023-03-16T02:45:39.942Z,100.00
2023-03-16T02:48:14.811Z,100.00
2023-03-16T02:50:48.239Z,100.00
2023-03-16T02:53:17.006Z,100.00
2023-03-16T02:55:45.988Z,100.00
2023-03-16T02:58:14.228Z,100.00
2023-03-16T03:00:45.460Z,100.00
2023-03-16T03:03:14.334Z,100.00
2023-03-16T03:05:42.672Z,100.00
2023-03-16T03:08:10.873Z,100.00
2023-03-16T03:10:38.960Z,100.00
2023-03-16T03:13:07.856Z,100.00
2023-03-16T03:15:36.410Z,100.00
2023-03-16T03:18:05.923Z,100.00
2023-03-16T03:20:34.630Z,100.00
2023-03-16T03:23:03.272Z,100.00
2023-03-16T03:25:34.828Z,100.00
2023-03-16T03:28:05.596Z,100.00
2023-03-16T03:30:34.382Z,100.00
2023-03-16T03:33:02.828Z,100.00
2023-03-16T03:35:32.428Z,100.00
2023-03-16T03:38:00.619Z,100.00
2023-03-16T03:40:28.936Z,100.00
2023-03-16T03:42:57.169Z,100.00
2023-03-16T03:45:25.402Z,100.00
2023-03-16T03:47:55.111Z,100.00
2023-03-16T03:50:23.411Z,100.00
2023-03-16T03:52:52.889Z,100.00
2023-03-16T03:55:20.951Z,100.00
2023-03-16T03:57:49.053Z,100.00
2023-03-16T04:00:20.930Z,100.00
2023-03-16T04:02:49.558Z,100.00
2023-03-16T04:05:17.919Z,100.00
2023-03-16T04:07:46.071Z,100.00
2023-03-16T04:10:15.780Z,100.00
2023-03-16T04:12:43.923Z,100.00
2023-03-16T04:15:13.792Z,100.00
2023-03-16T04:17:42.304Z,100.00
2023-03-16T04:20:14.634Z,100.00
2023-03-16T04:22:43.880Z,100.00
2023-03-16T04:25:12.490Z,100.00
2023-03-16T04:27:42.257Z,100.00
2023-03-16T04:30:13.796Z,100.00
2023-03-16T04:32:42.566Z,100.00
2023-03-16T04:35:11.349Z,100.00
2023-03-16T04:37:39.424Z,100.00
2023-03-16T04:40:12.007Z,100.00
2023-03-16T04:42:41.695Z,100.00
2023-03-16T04:45:10.763Z,100.00
2023-03-16T04:47:39.088Z,100.00
2023-03-16T04:50:08.794Z,100.00
2023-03-16T04:52:36.937Z,100.00
2023-03-16T04:55:06.160Z,100.00
2023-03-16T04:57:35.252Z,100.00
2023-03-16T05:00:11.811Z,100.00
2023-03-16T05:02:40.165Z,100.00
2023-03-16T05:05:08.730Z,100.00
2023-03-16T05:07:36.817Z,100.00
2023-03-16T05:10:05.333Z,100.00
2023-03-16T05:12:33.505Z,100.00
2023-03-16T05:15:01.897Z,100.00
2023-03-16T05:17:31.542Z,100.00
2023-03-16T05:19:59.811Z,100.00
2023-03-16T05:22:27.978Z,100.00
2023-03-16T05:24:56.060Z,100.00
2023-03-16T05:27:24.827Z,100.00
2023-03-16T05:29:52.884Z,100.00
2023-03-16T05:32:20.960Z,100.00
2023-03-16T05:34:53.182Z,100.00
2023-03-16T05:37:21.268Z,100.00
2023-03-16T05:39:49.313Z,100.00
2023-03-16T05:42:17.357Z,100.00
2023-03-16T05:44:46.077Z,100.00
2023-03-16T05:47:14.459Z,100.00
2023-03-16T05:49:42.473Z,100.00
2023-03-16T05:52:12.023Z,100.00
2023-03-16T05:54:40.408Z,100.00
2023-03-16T05:57:08.521Z,100.00
2023-03-16T05:59:36.905Z,100.00
2023-03-16T06:02:04.953Z,100.00
2023-03-16T06:04:33.024Z,100.00
2023-03-16T06:07:01.125Z,100.00
2023-03-16T06:09:30.827Z,100.00
2023-03-16T06:11:58.897Z,100.00
2023-03-16T06:14:26.983Z,100.00
2023-03-16T06:16:55.116Z,100.00
2023-03-16T06:19:23.278Z,100.00
2023-03-16T06:21:51.375Z,100.00
2023-03-16T06:24:19.365Z,100.00
2023-03-16T06:26:48.883Z,100.00
2023-03-16T06:29:17.066Z,100.00
2023-03-16T06:31:45.598Z,100.00
2023-03-16T06:34:13.583Z,100.00
2023-03-16T06:36:41.702Z,100.00
2023-03-16T06:39:09.885Z,100.00
2023-03-16T06:41:38.305Z,100.00
2023-03-16T06:44:07.766Z,100.00
2023-03-16T06:46:35.909Z,100.00
2023-03-16T06:49:04.410Z,100.00
2023-03-16T06:51:32.734Z,100.00
2023-03-16T06:54:01.564Z,100.00
2023-03-16T06:56:29.649Z,100.00
2023-03-16T06:58:57.913Z,100.00
2023-03-16T07:01:27.765Z,100.00
2023-03-16T07:03:55.906Z,100.00
2023-03-16T07:06:24.012Z,100.00
2023-03-16T07:08:52.050Z,100.00
2023-03-16T07:11:20.097Z,100.00
2023-03-16T07:13:48.246Z,100.00
2023-03-16T07:16:16.516Z,100.00
2023-03-16T07:18:46.141Z,100.00
2023-03-16T07:21:14.424Z,100.00
2023-03-16T07:23:42.538Z,100.00
2023-03-16T07:26:12.120Z,100.00
2023-03-16T07:28:40.370Z,100.00
2023-03-16T07:31:09.636Z,100.00
2023-03-16T07:33:40.699Z,100.00
2023-03-16T07:36:11.116Z,100.00
2023-03-16T07:38:40.032Z,100.00
2023-03-16T07:41:08.562Z,100.00
2023-03-16T07:43:36.692Z,100.00
2023-03-16T07:46:05.582Z,100.00
2023-03-16T07:48:33.864Z,100.00
2023-03-16T07:51:01.944Z,100.00
2023-03-16T07:53:32.099Z,100.00
2023-03-16T07:56:00.222Z,100.00
2023-03-16T07:58:28.457Z,100.00
2023-03-16T08:00:58.963Z,100.00
2023-03-16T08:03:27.639Z,100.00
2023-03-16T08:05:56.325Z,100.00
2023-03-16T08:08:24.530Z,100.00
2023-03-16T08:10:56.549Z,100.00
2023-03-16T08:13:27.168Z,100.00
2023-03-16T08:15:58.667Z,100.00
2023-03-16T08:18:27.942Z,100.00
2023-03-16T08:20:56.092Z,100.00
2023-03-16T08:23:25.035Z,100.00
2023-03-16T08:25:56.024Z,100.00
2023-03-16T08:28:26.038Z,100.00
2023-03-16T08:30:55.639Z,100.00
2023-03-16T08:33:24.129Z,100.00
2023-03-16T08:35:52.297Z,100.00
2023-03-16T08:38:20.379Z,100.00
2023-03-16T08:40:48.978Z,100.00
2023-03-16T08:43:19.868Z,100.00
2023-03-16T08:45:49.325Z,100.00
2023-03-16T08:48:18.371Z,100.00
2023-03-16T08:50:46.566Z,100.00
2023-03-16T08:53:15.747Z,100.00
2023-03-16T08:55:44.147Z,100.00
2023-03-16T08:58:14.090Z,100.00
2023-03-16T09:00:46.466Z,100.00
2023-03-16T09:03:15.689Z,100.00
2023-03-16T09:05:43.905Z,100.00
2023-03-16T09:08:12.751Z,100.00
2023-03-16T09:10:41.028Z,100.00
2023-03-16T09:13:09.257Z,100.00
2023-03-16T09:15:37.702Z,100.00
2023-03-16T09:18:07.246Z,100.00
2023-03-16T09:20:36.017Z,100.00
2023-03-16T09:23:04.850Z,100.00
2023-03-16T09:25:33.651Z,100.00
2023-03-16T09:28:01.897Z,100.00
2023-03-16T09:30:30.247Z,100.00
2023-03-16T09:32:58.514Z,100.00
2023-03-16T09:35:28.299Z,100.00
2023-03-16T09:38:06.196Z,100.00
2023-03-16T09:40:38.372Z,100.00
2023-03-16T09:43:24.571Z,100.00
2023-03-16T09:46:01.502Z,100.00
2023-03-16T09:48:33.904Z,100.00
2023-03-16T09:51:06.539Z,100.00
2023-03-16T09:53:38.198Z,100.00
2023-03-16T09:56:09.711Z,100.00
2023-03-16T09:58:38.571Z,100.00
2023-03-16T10:01:13.618Z,100.00
2023-03-16T10:04:00.819Z,100.00
2023-03-16T10:06:31.474Z,100.00
2023-03-16T10:09:10.570Z,100.00
2023-03-16T10:11:43.167Z,100.00
2023-03-16T10:14:17.910Z,100.00
2023-03-16T10:16:50.619Z,100.00
2023-03-16T10:19:23.418Z,100.00
2023-03-16T10:21:58.102Z,100.00
2023-03-16T10:24:39.414Z,100.00
2023-03-16T10:27:09.664Z,98.56
2023-03-16T10:29:38.804Z,97.15
2023-03-16T10:32:16.623Z,96.51
2023-03-16T10:34:48.276Z,96.32
2023-03-16T10:37:17.952Z,97.21
2023-03-16T10:39:46.960Z,97.29
2023-03-16T10:42:18.050Z,95.80
2023-03-16T10:44:46.762Z,96.38
2023-03-16T10:47:20.226Z,95.79
2023-03-16T10:49:51.444Z,94.04
2023-03-16T10:52:25.947Z,92.80
2023-03-16T10:54:57.793Z,91.98
2023-03-16T10:57:27.514Z,92.33
2023-03-16T11:00:00.888Z,92.89
2023-03-16T11:02:34.213Z,91.92
2023-03-16T11:05:14.231Z,92.04
2023-03-16T11:07:50.037Z,92.53
2023-03-16T11:10:29.256Z,90.07
2023-03-16T11:13:04.369Z,91.12
2023-03-16T11:15:40.052Z,88.17
2023-03-16T11:18:18.040Z,87.02
2023-03-16T11:20:47.351Z,86.61
2023-03-16T11:23:19.006Z,86.64
2023-03-16T11:25:51.947Z,88.03
2023-03-16T11:28:29.862Z,89.87
2023-03-16T11:31:07.539Z,90.19
2023-03-16T11:33:36.089Z,89.60
2023-03-16T11:36:20.432Z,92.35
2023-03-16T11:38:57.602Z,91.83
2023-03-16T11:41:37.740Z,90.03
2023-03-16T11:44:14.389Z,89.29
2023-03-16T11:46:48.485Z,88.60
2023-03-16T11:49:42.995Z,86.85
2023-03-16T11:52:20.689Z,87.13
2023-03-16T11:55:01.534Z,87.23
2023-03-16T11:57:45.838Z,85.81
2023-03-16T12:00:21.711Z,84.57
2023-03-16T12:03:03.480Z,84.58
2023-03-16T12:05:47.487Z,83.30
2023-03-16T12:08:29.128Z,84.06
2023-03-16T12:11:04.711Z,84.23
2023-03-16T12:13:45.999Z,84.13
2023-03-16T12:16:21.264Z,84.62
2023-03-16T12:18:53.457Z,82.37
2023-03-16T12:21:24.553Z,82.17
2023-03-16T12:23:55.347Z,82.04
2023-03-16T12:26:30.309Z,80.95
2023-03-16T12:29:08.641Z,80.84
2023-03-16T12:31:46.114Z,82.67
2023-03-16T12:34:25.692Z,82.57
2023-03-16T12:37:13.029Z,84.90
2023-03-16T12:39:56.498Z,84.09
2023-03-16T12:42:57.321Z,86.15
2023-03-16T12:45:35.416Z,86.99
2023-03-16T12:48:15.743Z,87.35
2023-03-16T12:50:52.203Z,87.40
2023-03-16T12:53:30.837Z,87.53
2023-03-16T12:55:58.999Z,86.77
2023-03-16T12:58:28.418Z,87.85
2023-03-16T13:01:00.792Z,87.55
2023-03-16T13:03:29.742Z,88.04
2023-03-16T13:06:01.041Z,87.17
2023-03-16T13:08:30.734Z,87.56
2023-03-16T13:11:04.560Z,86.80
2023-03-16T13:13:34.342Z,86.84
2023-03-16T13:16:11.166Z,88.40
2023-03-16T13:18:44.860Z,90.22
2023-03-16T13:21:19.181Z,90.43
2023-03-16T13:23:59.613Z,90.75
2023-03-16T13:26:39.918Z,89.75
2023-03-16T13:29:20.837Z,92.03
2023-03-16T13:31:51.260Z,91.23
2023-03-16T13:34:22.735Z,92.85
2023-03-16T13:36:56.956Z,93.51
2023-03-16T13:39:27.450Z,92.85
2023-03-16T13:42:00.822Z,92.57
2023-03-16T13:44:30.205Z,94.01
2023-03-16T13:47:05.149Z,95.22
2023-03-16T13:49:33.548Z,94.35
2023-03-16T13:52:06.014Z,93.29
2023-03-16T13:54:34.253Z,92.61
2023-03-16T13:57:07.377Z,93.87
2023-03-16T13:59:36.120Z,93.92
2023-03-16T14:02:19.557Z,94.09
2023-03-16T14:04:48.255Z,92.96
2023-03-16T14:07:18.596Z,93.29
2023-03-16T14:09:49.843Z,93.88
2023-03-16T14:12:20.259Z,95.01
2023-03-16T14:14:51.384Z,95.15
2023-03-16T14:17:22.595Z,96.25
2023-03-16T14:19:52.754Z,97.07
2023-03-16T14:22:24.280Z,98.09
2023-03-16T14:24:57.013Z,99.47
2023-03-16T14:27:30.659Z,99.13
2023-03-16T14:30:02.378Z,98.68
2023-03-16T14:32:34.532Z,98.15
2023-03-16T14:35:13.828Z,99.16
2023-03-16T14:37:43.140Z,97.73
2023-03-16T14:40:25.428Z,97.39
2023-03-16T14:42:55.962Z,97.38
2023-03-16T14:45:24.673Z,97.61
2023-03-16T14:47:54.446Z,98.46
2023-03-16T14:50:26.489Z,98.03
2023-03-16T14:52:57.542Z,98.44
2023-03-16T14:55:25.995Z,98.54
2023-03-16T14:57:54.479Z,99.12
2023-03-16T15:00:23.531Z,98.27
2023-03-16T15:03:02.633Z,97.60
2023-03-16T15:05:35.312Z,98.37
2023-03-16T15:08:06.571Z,97.52
2023-03-16T15:10:37.236Z,98.38
2023-03-16T15:13:16.868Z,97.95
2023-03-16T15:15:47.204Z,97.66
2023-03-16T15:18:16.953Z,98.45
2023-03-16T15:20:49.736Z,98.02
2023-03-16T15:23:18.625Z,98.88
2023-03-16T15:25:47.714Z,98.64
2023-03-16T15:28:17.728Z,98.97
2023-03-16T15:30:47.527Z,98.62
2023-03-16T15:33:18.822Z,99.35
2023-03-16T15:35:49.434Z,99.84
2023-03-16T15:38:22.016Z,99.29
2023-03-16T15:40:51.380Z,98.69
2023-03-16T15:43:22.895Z,99.59
2023-03-16T15:45:52.244Z,99.93
2023-03-16T15:48:24.689Z,99.94
2023-03-16T15:50:54.943Z,100.00
2023-03-16T15:53:31.100Z,100.00
2023-03-16T15:56:03.250Z,100.00
2023-03-16T15:58:34.302Z,100.00
2023-03-16T16:01:04.027Z,100.00
2023-03-16T16:03:35.125Z,100.00
2023-03-16T16:06:03.830Z,100.00
2023-03-16T16:08:32.237Z,100.00
2023-03-16T16:11:00.461Z,100.00
2023-03-16T16:13:43.616Z,100.00
2023-03-16T16:16:14.606Z,100.00
2023-03-16T16:18:44.940Z,100.00
2023-03-16T16:21:18.036Z,100.00
2023-03-16T16:23:46.651Z,100.00
2023-03-16T16:26:27.852Z,100.00
2023-03-16T16:29:01.133Z,100.00
2023-03-16T16:31:32.407Z,100.00
2023-03-16T16:34:02.169Z,100.00
2023-03-16T16:36:32.507Z,100.00
2023-03-16T16:39:00.795Z,100.00
2023-03-16T16:41:31.532Z,100.00
2023-03-16T16:44:05.165Z,100.00
2023-03-16T16:46:37.811Z,100.00
2023-03-16T16:49:14.152Z,100.00
2023-03-16T16:51:42.812Z,100.00
2023-03-16T16:54:19.587Z,100.00
2023-03-16T16:56:48.594Z,100.00
2023-03-16T16:59:19.418Z,100.00
2023-03-16T17:01:50.823Z,100.00
2023-03-16T17:04:23.442Z,100.00
2023-03-16T17:06:55.587Z,100.00
2023-03-16T17:09:23.892Z,100.00
2023-03-16T17:11:52.447Z,100.00
2023-03-16T17:14:22.000Z,100.00
2023-03-16T17:16:51.983Z,100.00
2023-03-16T17:19:23.574Z,100.00
2023-03-16T17:21:52.432Z,100.00
2023-03-16T17:24:21.081Z,100.00
2023-03-16T17:26:52.430Z,100.00
2023-03-16T17:29:24.466Z,100.00
2023-03-16T17:31:53.303Z,100.00
2023-03-16T17:34:24.502Z,100.00
2023-03-16T17:36:52.948Z,100.00
2023-03-16T17:39:23.290Z,100.00
2023-03-16T17:41:55.775Z,100.00
2023-03-16T17:44:24.015Z,100.00
2023-03-16T17:46:52.098Z,100.00
2023-03-16T17:49:22.316Z,100.00
2023-03-16T17:51:51.805Z,100.00
2023-03-16T17:54:19.864Z,100.00
2023-03-16T17:56:49.185Z,100.00
2023-03-16T17:59:20.197Z,100.00
2023-03-16T18:01:48.904Z,100.00
2023-03-16T18:04:18.443Z,100.00
2023-03-16T18:06:48.221Z,100.00
2023-03-16T18:09:18.855Z,100.00
2023-03-16T18:11:50.065Z,100.00
2023-03-16T18:14:25.489Z,100.00
2023-03-16T18:16:54.672Z,100.00
2023-03-16T18:19:25.501Z,100.00
2023-03-16T18:21:54.821Z,100.00
2023-03-16T18:24:26.848Z,100.00
2023-03-16T18:26:55.359Z,100.00
2023-03-16T18:29:24.151Z,100.00
2023-03-16T18:31:56.312Z,100.00
2023-03-16T18:34:27.527Z,100.00
2023-03-16T18:36:59.714Z,100.00
2023-03-16T18:39:29.133Z,100.00
2023-03-16T18:41:57.284Z,100.00
2023-03-16T18:44:27.087Z,100.00
2023-03-16T18:47:02.388Z,100.00
2023-03-16T18:49:33.912Z,100.00
2023-03-16T18:52:02.289Z,100.00
2023-03-16T18:54:35.635Z,100.00
2023-03-16T18:57:05.771Z,100.00
2023-03-16T18:59:34.024Z,100.00
2023-03-16T19:02:02.350Z,100.00
2023-03-16T19:04:32.956Z,100.00
2023-03-16T19:07:01.279Z,100.00
2023-03-16T19:09:32.915Z,100.00
2023-03-16T19:12:03.195Z,100.00
2023-03-16T19:14:34.200Z,100.00
2023-03-16T19:17:02.796Z,100.00
2023-03-16T19:19:31.052Z,100.00
2023-03-16T19:22:04.998Z,100.00
2023-03-16T19:24:42.829Z,100.00
2023-03-16T19:27:21.235Z,100.00
2023-03-16T19:29:52.049Z,100.00
2023-03-16T19:32:21.942Z,100.00
2023-03-16T19:34:50.196Z,100.00
2023-03-16T19:37:19.855Z,100.00
2023-03-16T19:39:49.729Z,100.00
2023-03-16T19:42:23.337Z,100.00
2023-03-16T19:44:52.227Z,100.00
2023-03-16T19:47:27.747Z,100.00
2023-03-16T19:49:56.144Z,100.00
2023-03-16T19:52:24.341Z,100.00
2023-03-16T19:54:53.829Z,100.00
2023-03-16T19:57:22.253Z,100.00
2023-03-16T19:59:54.702Z,100.00
2023-03-16T20:02:28.543Z,100.00
2023-03-16T20:04:57.504Z,100.00
2023-03-16T20:07:26.067Z,100.00
2023-03-16T20:09:55.588Z,100.00
2023-03-16T20:12:25.437Z,100.00
2023-03-16T20:14:55.687Z,100.00
2023-03-16T20:17:26.106Z,100.00
2023-03-16T20:19:54.363Z,100.00
2023-03-16T20:22:24.313Z,100.00
2023-03-16T20:24:54.469Z,100.00
2023-03-16T20:27:24.954Z,100.00
2023-03-16T20:29:53.283Z,100.00
2023-03-16T20:32:23.494Z,100.00
2023-03-16T20:34:53.720Z,100.00
2023-03-16T20:37:24.906Z,100.00
2023-03-16T20:39:56.533Z,100.00
2023-03-16T20:42:30.485Z,100.00
2023-03-16T20:44:59.220Z,100.00
2023-03-16T20:47:28.417Z,100.00
2023-03-16T20:49:58.415Z,100.00
2023-03-16T20:52:30.827Z,100.00
2023-03-16T20:54:59.482Z,100.00
2023-03-16T20:57:29.808Z,100.00
2023-03-16T21:00:00.749Z,100.00
2023-03-16T21:02:30.785Z,100.00
2023-03-16T21:05:01.150Z,100.00
2023-03-16T21:07:29.480Z,100.00
2023-03-16T21:09:57.667Z,100.00
2023-03-16T21:12:29.732Z,100.00
2023-03-16T21:14:58.719Z,100.00
2023-03-16T21:17:31.346Z,100.00
2023-03-16T21:19:59.806Z,100.00
2023-03-16T21:22:30.208Z,100.00
2023-03-16T21:24:58.697Z,100.00
2023-03-16T21:27:31.313Z,100.00
2023-03-16T21:30:04.287Z,100.00
2023-03-16T21:32:34.174Z,100.00
2023-03-16T21:35:02.442Z,100.00
2023-03-16T21:37:30.667Z,100.00
2023-03-16T21:40:01.162Z,100.00
2023-03-16T21:42:31.071Z,100.00
2023-03-16T21:44:59.286Z,100.00
2023-03-16T21:47:29.818Z,100.00
2023-03-16T21:49:59.361Z,100.00
2023-03-16T21:52:30.325Z,100.00
2023-03-16T21:55:00.079Z,100.00
2023-03-16T21:57:28.345Z,100.00
2023-03-16T21:59:58.045Z,100.00
2023-03-16T22:02:28.162Z,100.00
2023-03-16T22:04:57.911Z,100.00
2023-03-16T22:07:26.409Z,100.00
2023-03-16T22:09:54.469Z,100.00
2023-03-16T22:12:22.581Z,100.00
2023-03-16T22:14:50.698Z,100.00
2023-03-16T22:17:23.178Z,100.00
2023-03-16T22:19:51.240Z,100.00
2023-03-16T22:22:19.506Z,100.00
2023-03-16T22:24:48.161Z,100.00
2023-03-16T22:27:21.527Z,100.00
2023-03-16T22:29:51.265Z,100.00
2023-03-16T22:32:23.026Z,100.00
2023-03-16T22:34:53.891Z,100.00
2023-03-16T22:37:25.262Z,100.00
2023-03-16T22:39:53.790Z,100.00
2023-03-16T22:42:29.269Z,100.00
2023-03-16T22:44:57.825Z,100.00
2023-03-16T22:47:32.358Z,100.00
2023-03-16T22:50:00.475Z,100.00
2023-03-16T22:52:31.956Z,100.00
2023-03-16T22:55:01.978Z,100.00
2023-03-16T22:57:31.336Z,100.00
2023-03-16T23:00:00.749Z,100.00
2023-03-16T23:02:30.678Z,100.00
2023-03-16T23:04:58.810Z,100.00
2023-03-16T23:07:27.350Z,100.00
2023-03-16T23:09:55.775Z,100.00
2023-03-16T23:12:23.927Z,100.00
2023-03-16T23:14:52.081Z,100.00
2023-03-16T23:17:22.437Z,100.00
2023-03-16T23:19:52.080Z,100.00
2023-03-16T23:22:20.173Z,100.00
2023-03-16T23:24:48.174Z,100.00
2023-03-16T23:27:19.031Z,100.00
2023-03-16T23:29:47.542Z,100.00
2023-03-16T23:32:17.196Z,100.00
2023-03-16T23:34:46.108Z,100.00
2023-03-16T23:37:15.930Z,100.00
2023-03-16T23:39:44.060Z,100.00
2023-03-16T23:42:12.643Z,100.00
2023-03-16T23:44:40.957Z,100.00
2023-03-16T23:47:11.978Z,100.00
2023-03-16T23:49:42.266Z,100.00
2023-03-16T23:52:12.313Z,100.00
2023-03-16T23:54:41.820Z,100.00
2023-03-16T23:57:10.458Z,100.00
2023-03-16T23:59:38.692Z,100.00
